VVPB/HUI METAR and TAF weather

Enter ICAO airport designator
Station Type Date Time Source
VVPB METAR 2020/03/28 09:00 UTC NOAA

VVPB 280900Z 30010KT 9999 FEW020 30/25 Q1007 NOSIG


Station Type Date Time Source
VVPB Decoded METAR 2020/03/28 09:00 UTC NOAA

Hue, Vietnam (VVPB) 16-24N 107-41E 17M
Mar 28, 2020 - 05:00 AM EDT / 2020.03.28 0900 UTC
Wind: from the WNW (300 degrees) at 12 MPH (10 KT):0
Visibility: greater than 7 mile(s):0
Sky conditions: mostly clear
Temperature: 86 F (30 C)
Heat index: 96.8 F (36.0 C):1
Dew Point: 77 F (25 C)
Relative Humidity: 74%
Pressure (altimeter): 29.74 in. Hg (1007 hPa)
ob: VVPB 280900Z 30010KT 9999 FEW020 30/25 Q1007 NOSIG
cycle: 9

Station Type Date Time Source
VVPB TAF 2020/03/28 06:00 UTC NOAA

TAF VVPB 280500Z 2806/2906 05008KT 9999 FEW017 SCT060
TEMPO 2818/2901 4000 RA SCT010 BKN050

Example: see airport list